createdAt,value
2023-02-11T00:02:21.779Z,102077.22
2023-02-11T00:07:31.696Z,102089.25
2023-02-11T00:12:39.705Z,102073.00
2023-02-11T00:17:46.596Z,102047.28
2023-02-11T00:22:54.844Z,102040.44
2023-02-11T00:28:01.272Z,102031.03
2023-02-11T00:33:08.028Z,101999.31
2023-02-11T00:38:15.901Z,101999.44
2023-02-11T00:43:22.269Z,101998.56
2023-02-11T00:48:30.379Z,101995.16
2023-02-11T00:53:38.960Z,101977.13
2023-02-11T00:58:45.443Z,101969.41
2023-02-11T01:03:51.987Z,101960.81
2023-02-11T01:09:08.810Z,101927.50
2023-02-11T01:14:15.293Z,101906.00
2023-02-11T01:19:21.508Z,101903.44
2023-02-11T01:24:29.193Z,101897.53
2023-02-11T01:29:35.456Z,101923.16
2023-02-11T01:34:41.753Z,101917.16
2023-02-11T01:39:49.480Z,101895.75
2023-02-11T01:44:59.415Z,101869.16
2023-02-11T01:50:06.520Z,101861.44
2023-02-11T01:55:38.245Z,101842.56
2023-02-11T02:00:44.573Z,101836.56
2023-02-11T02:05:57.724Z,101801.44
2023-02-11T02:11:06.753Z,101803.06
2023-02-11T02:16:15.748Z,101811.63
2023-02-11T02:22:21.367Z,101799.72
2023-02-11T02:27:42.956Z,101782.56
2023-02-11T02:33:23.131Z,101771.44
2023-02-11T02:38:36.706Z,101782.59
2023-02-11T02:43:48.208Z,101761.16
2023-02-11T02:48:57.383Z,101744.13
2023-02-11T02:54:31.385Z,101735.50
2023-02-11T02:59:51.768Z,101741.47
2023-02-11T03:05:08.164Z,101734.69
2023-02-11T03:10:21.338Z,101731.22
2023-02-11T03:15:32.259Z,101714.94
2023-02-11T03:20:43.893Z,101713.19
2023-02-11T03:25:57.715Z,101701.19
2023-02-11T03:31:16.359Z,101687.47
2023-02-11T03:36:30.224Z,101690.91
2023-02-11T03:41:37.301Z,101694.44
2023-02-11T03:46:50.383Z,101677.19
2023-02-11T03:51:59.836Z,101676.34
2023-02-11T03:57:06.398Z,101668.72
2023-02-11T04:02:12.918Z,101642.94
2023-02-11T04:07:20.824Z,101624.84
2023-02-11T04:12:26.994Z,101615.38
2023-02-11T04:17:33.461Z,101607.66
2023-02-11T04:22:41.106Z,101586.22
2023-02-11T04:27:47.271Z,101563.09
2023-02-11T04:32:54.534Z,101552.75
2023-02-11T04:38:02.035Z,101534.75
2023-02-11T04:43:08.549Z,101524.44
2023-02-11T04:48:14.882Z,101526.19
2023-02-11T04:53:22.827Z,101535.63
2023-02-11T04:58:29.167Z,101525.34
2023-02-11T05:03:35.400Z,101514.19
2023-02-11T05:08:43.222Z,101511.69
2023-02-11T05:13:50.167Z,101502.25
2023-02-11T05:18:56.921Z,101494.59
2023-02-11T05:24:04.636Z,101501.47
2023-02-11T05:29:11.110Z,101497.22
2023-02-11T05:34:17.666Z,101476.66
2023-02-11T05:39:25.555Z,101460.31
2023-02-11T05:44:32.073Z,101472.28
2023-02-11T05:49:38.772Z,101461.16
2023-02-11T05:54:46.815Z,101473.16
2023-02-11T05:59:53.358Z,101460.31
2023-02-11T06:05:00.008Z,101461.22
2023-02-11T06:10:09.616Z,101447.47
2023-02-11T06:15:15.847Z,101445.81
2023-02-11T06:20:22.814Z,101433.75
2023-02-11T06:25:30.781Z,101440.69
2023-02-11T06:30:38.206Z,101417.59
2023-02-11T06:35:44.569Z,101422.78
2023-02-11T06:40:52.663Z,101432.19
2023-02-11T06:45:58.872Z,101416.72
2023-02-11T06:51:06.826Z,101396.16
2023-02-11T06:56:17.631Z,101399.56
2023-02-11T07:01:25.342Z,101389.25
2023-02-11T07:06:31.621Z,101390.13
2023-02-11T07:11:39.410Z,101400.44
2023-02-11T07:16:45.868Z,101391.00
2023-02-11T07:21:52.770Z,101384.16
2023-02-11T07:27:00.669Z,101387.63
2023-02-11T07:32:07.667Z,101371.31
2023-02-11T07:37:14.149Z,101380.88
2023-02-11T07:42:22.126Z,101389.47
2023-02-11T07:47:28.572Z,101381.72
2023-02-11T07:52:34.793Z,101372.34
2023-02-11T07:57:42.710Z,101360.41
2023-02-11T08:02:49.160Z,101355.28
2023-02-11T08:07:56.171Z,101356.16
2023-02-11T08:13:03.884Z,101358.81
2023-02-11T08:18:10.191Z,101362.31
2023-02-11T08:23:16.344Z,101357.94
2023-02-11T08:28:24.063Z,101361.31
2023-02-11T08:33:30.317Z,101355.34
2023-02-11T08:38:36.619Z,101310.81
2023-02-11T08:43:45.541Z,101307.38
2023-02-11T08:48:52.018Z,101289.47
2023-02-11T08:53:58.986Z,101284.31
2023-02-11T08:59:07.408Z,101263.75
2023-02-11T09:04:13.655Z,101251.75
2023-02-11T09:09:20.266Z,101249.25
2023-02-11T09:14:28.858Z,101270.69
2023-02-11T09:19:36.340Z,101271.53
2023-02-11T09:24:42.435Z,101275.91
2023-02-11T09:29:54.259Z,101277.59
2023-02-11T09:35:01.195Z,101301.63
2023-02-11T09:40:09.206Z,101291.34
2023-02-11T09:45:21.993Z,101291.34
2023-02-11T09:50:35.687Z,101308.56
2023-02-11T09:55:46.856Z,101306.00
2023-02-11T10:01:06.768Z,101284.56
2023-02-11T10:06:47.785Z,101281.19
2023-02-11T10:12:12.730Z,101246.06
2023-02-11T10:17:34.070Z,101247.78
2023-02-11T10:22:44.852Z,101216.94
2023-02-11T10:27:53.238Z,101198.91
2023-02-11T10:33:08.833Z,101190.34
2023-02-11T10:38:15.296Z,101188.66
2023-02-11T10:43:27.953Z,101167.22
2023-02-11T10:48:46.928Z,101172.44
2023-02-11T10:54:21.573Z,101157.91
2023-02-11T10:59:32.523Z,101147.69
2023-02-11T11:04:45.225Z,101182.81
2023-02-11T11:09:56.031Z,101192.28
2023-02-11T11:15:16.738Z,101191.44
2023-02-11T11:20:29.642Z,101197.50
2023-02-11T11:25:37.765Z,101175.22
2023-02-11T11:30:45.909Z,101184.66
2023-02-11T11:36:08.166Z,101176.94
2023-02-11T11:41:26.893Z,101177.88
2023-02-11T11:46:37.934Z,101159.00
2023-02-11T11:51:53.678Z,101150.59
2023-02-11T11:57:06.825Z,101132.56
2023-02-11T12:03:11.544Z,101139.50
2023-02-11T12:08:30.383Z,101130.91
2023-02-11T12:14:02.587Z,101141.28
2023-02-11T12:19:44.349Z,101147.41
2023-02-11T12:25:18.535Z,101141.44
2023-02-11T12:31:05.544Z,101149.22
2023-02-11T12:36:23.218Z,101156.16
2023-02-11T12:42:08.101Z,101149.34
2023-02-11T12:47:24.544Z,101145.97
2023-02-11T12:52:49.685Z,101138.38
2023-02-11T12:58:00.871Z,101153.84
2023-02-11T13:03:15.657Z,101133.31
2023-02-11T13:08:28.039Z,101133.44
2023-02-11T13:13:47.925Z,101144.59
2023-02-11T13:19:04.165Z,101139.50
2023-02-11T13:31:30.465Z,101149.81
2023-02-11T13:36:37.929Z,101153.31
2023-02-11T13:41:52.476Z,101150.75
2023-02-11T13:47:06.429Z,101148.16
2023-02-11T13:52:26.560Z,101151.66
2023-02-11T13:57:40.525Z,101143.06
2023-02-11T14:03:51.604Z,101150.94
2023-02-11T14:09:32.485Z,101155.28
2023-02-11T14:15:20.706Z,101162.09
2023-02-11T14:20:48.452Z,101163.00
2023-02-11T14:26:11.727Z,101164.78
2023-02-11T14:31:24.645Z,101171.63
2023-02-11T14:37:02.920Z,101182.81
2023-02-11T14:42:22.689Z,101184.53
2023-02-11T14:47:39.298Z,101186.38
2023-02-11T14:52:49.269Z,101194.16
2023-02-11T16:12:27.524Z,101265.28
2023-02-11T16:17:36.959Z,101268.72
2023-02-11T16:22:50.282Z,101276.69
2023-02-11T16:28:00.654Z,101277.56
2023-02-11T16:33:09.190Z,101283.66
2023-02-11T16:38:21.697Z,101292.19
2023-02-11T16:43:35.316Z,101299.97
2023-02-11T16:48:49.088Z,101300.88
2023-02-11T16:53:59.153Z,101315.50
2023-02-11T17:00:25.859Z,101326.69
2023-02-11T17:05:54.235Z,101331.97
2023-02-11T17:11:06.023Z,101335.34
2023-02-11T17:16:25.823Z,101342.22
2023-02-11T17:21:36.831Z,101356.03
2023-02-11T17:26:47.981Z,101361.22
2023-02-11T17:33:36.106Z,101367.34
2023-02-11T17:53:40.320Z,101393.19
2023-02-11T17:58:53.838Z,101406.28
2023-02-11T18:04:05.304Z,101412.31
2023-02-11T18:09:16.992Z,101416.63
2023-02-11T18:14:26.128Z,101418.41
2023-02-11T18:19:38.547Z,101431.41
2023-02-11T18:24:54.346Z,101437.50
2023-02-11T18:30:08.349Z,101441.75
2023-02-11T18:43:32.371Z,101472.78
2023-02-11T18:48:45.798Z,101477.94
2023-02-11T18:53:56.910Z,101488.31
2023-02-11T18:59:11.010Z,101493.53
2023-02-11T19:04:21.630Z,101504.72
2023-02-11T19:09:33.111Z,101517.66
2023-02-11T19:14:46.799Z,101512.41
2023-02-11T19:19:56.578Z,101520.22
2023-02-11T19:33:19.471Z,101556.41
2023-02-11T19:38:29.724Z,101557.28
2023-02-11T19:43:39.361Z,101555.56
2023-02-11T19:48:58.144Z,101571.91
2023-02-11T19:54:07.629Z,101578.81
2023-02-11T19:59:19.023Z,101594.31
2023-02-11T20:04:34.710Z,101608.06
2023-02-11T20:09:44.553Z,101618.47
2023-02-11T20:14:56.194Z,101626.28
2023-02-11T20:20:12.899Z,101634.03
2023-02-11T20:33:36.150Z,101650.50
2023-02-11T20:41:42.156Z,101681.47
2023-02-11T20:48:00.156Z,101688.31
2023-02-11T20:53:18.583Z,101699.66
2023-02-11T20:58:43.851Z,101725.44
2023-02-11T21:04:07.991Z,101741.81
2023-02-11T21:09:31.512Z,101744.41
2023-02-11T21:14:52.832Z,101758.22
2023-02-11T21:20:10.471Z,101780.69
2023-02-11T21:25:23.269Z,101791.75
2023-02-11T21:30:39.193Z,101800.03
2023-02-11T21:35:49.451Z,101820.41
2023-02-11T21:41:05.579Z,101825.16
2023-02-11T21:46:22.155Z,101832.72
2023-02-11T21:51:30.728Z,101860.84
2023-02-11T21:56:39.699Z,101871.94
2023-02-11T22:01:53.810Z,101878.81
2023-02-11T22:07:00.947Z,101889.78
2023-02-11T22:12:10.210Z,101906.88
2023-02-11T22:17:18.958Z,101922.19
2023-02-11T22:22:25.897Z,101937.56
2023-02-11T22:27:32.802Z,101952.84
2023-02-11T22:32:42.939Z,101963.88
2023-02-11T22:37:50.091Z,101971.22
2023-02-11T22:42:56.859Z,101982.19
2023-02-11T22:48:04.897Z,101984.00
2023-02-11T22:53:11.767Z,101999.28
2023-02-11T22:58:19.194Z,102011.91
2023-02-11T23:03:28.547Z,102018.69
2023-02-11T23:08:36.038Z,102034.63
2023-02-11T23:13:44.624Z,102036.06
2023-02-11T23:18:52.871Z,102039.25
2023-02-11T23:24:02.111Z,102049.22
2023-02-11T23:29:08.955Z,102063.53
2023-02-11T23:34:20.738Z,102068.44
2023-02-11T23:39:27.813Z,102089.78
2023-02-11T23:44:34.852Z,102081.81
2023-02-11T23:49:42.972Z,102086.31
2023-02-11T23:54:50.072Z,102098.94
2023-02-11T23:59:57.146Z,102093.53
